New Sweden, Maine
Current Conditions -  °F | °C
As of 2:54 AM on Sunday 26 Oct 2014 (Local Time) from KCAR Reporting Station
Light Rain Light Rain  
Wind Chill: 37°   Ceiling: 400
Heat Index: 42°   Visibility: 8mi
Dew Point: 40°   Wind: 9mph
Humidity: 92%   Direction: 130°SE
Pressure: 29.41"   Gusts: NA
Location:  46.94°N, 68.12°W
Report Text: KCAR 260654Z AUTO 13008KT 8SM -RA OVC004 06/04 A2941 RMK AO2 SLP964 P0004 T00560044
Loading
Personal Weather Stations






























Interactive Weather Map
Tropical Storm Tracking
New forecast layout! Learn more

10-Day Weather Forecast

Advertisements
Track Severe Weather on mobile